sensor_id;sensor_type;location;lat;lon;timestamp;pressure;altitude;pressure_sealevel;temperature;humidity
38191;BME280;25191;47.510;19.124;2023-01-29T00:08:51;100991.97;;;20.88;nan
38191;BME280;25191;47.510;19.124;2023-01-29T00:18:52;101008.53;;;20.90;nan
38191;BME280;25191;47.510;19.124;2023-01-29T00:28:54;101015.91;;;20.85;nan
38191;BME280;25191;47.510;19.124;2023-01-29T00:38:57;101021.34;;;20.82;nan
38191;BME280;25191;47.510;19.124;2023-01-29T00:48:59;101026.84;;;20.79;nan
38191;BME280;25191;47.510;19.124;2023-01-29T00:59:00;101033.16;;;20.76;nan
38191;BME280;25191;47.510;19.124;2023-01-29T01:09:00;101023.66;;;20.74;nan
38191;BME280;25191;47.510;19.124;2023-01-29T01:19:20;101032.66;;;20.70;nan
38191;BME280;25191;47.510;19.124;2023-01-29T01:29:20;101041.69;;;20.66;nan
38191;BME280;25191;47.510;19.124;2023-01-29T01:39:22;101043.47;;;20.65;nan
38191;BME280;25191;47.510;19.124;2023-01-29T01:49:23;101050.63;;;20.63;nan
38191;BME280;25191;47.510;19.124;2023-01-29T01:59:25;101045.66;;;20.58;nan
38191;BME280;25191;47.510;19.124;2023-01-29T02:09:31;101046.50;;;20.59;nan
38191;BME280;25191;47.510;19.124;2023-01-29T02:19:52;101058.06;;;20.56;nan
38191;BME280;25191;47.510;19.124;2023-01-29T02:40:19;101073.31;;;20.51;nan
38191;BME280;25191;47.510;19.124;2023-01-29T02:50:31;101081.38;;;20.48;nan
38191;BME280;25191;47.510;19.124;2023-01-29T03:00:37;101086.97;;;20.43;nan
38191;BME280;25191;47.510;19.124;2023-01-29T03:11:02;101087.91;;;20.42;nan
38191;BME280;25191;47.510;19.124;2023-01-29T03:21:09;101089.88;;;20.39;nan
38191;BME280;25191;47.510;19.124;2023-01-29T03:31:31;101103.84;;;20.39;nan
38191;BME280;25191;47.510;19.124;2023-01-29T03:52:13;101112.03;;;20.35;nan
38191;BME280;25191;47.510;19.124;2023-01-29T04:02:19;101107.63;;;20.35;nan
38191;BME280;25191;47.510;19.124;2023-01-29T04:12:37;101105.84;;;20.36;nan
38191;BME280;25191;47.510;19.124;2023-01-29T04:22:46;101102.47;;;20.34;nan
38191;BME280;25191;47.510;19.124;2023-01-29T04:53:22;101103.50;;;20.31;nan
38191;BME280;25191;47.510;19.124;2023-01-29T05:03:26;101113.06;;;20.32;nan
38191;BME280;25191;47.510;19.124;2023-01-29T05:13:30;101107.75;;;20.34;nan
38191;BME280;25191;47.510;19.124;2023-01-29T05:23:33;101104.50;;;20.43;nan
38191;BME280;25191;47.510;19.124;2023-01-29T05:33:34;101107.63;;;20.50;nan
38191;BME280;25191;47.510;19.124;2023-01-29T05:43:36;101104.59;;;20.56;nan
38191;BME280;25191;47.510;19.124;2023-01-29T05:53:38;101101.69;;;20.60;nan
38191;BME280;25191;47.510;19.124;2023-01-29T06:03:38;101104.84;;;20.66;nan
38191;BME280;25191;47.510;19.124;2023-01-29T06:13:39;101120.34;;;20.70;nan
38191;BME280;25191;47.510;19.124;2023-01-29T06:23:39;101135.78;;;20.76;nan
38191;BME280;25191;47.510;19.124;2023-01-29T06:33:40;101157.38;;;20.82;nan
38191;BME280;25191;47.510;19.124;2023-01-29T06:43:43;101174.59;;;20.87;nan
38191;BME280;25191;47.510;19.124;2023-01-29T06:53:43;101177.78;;;20.92;nan
38191;BME280;25191;47.510;19.124;2023-01-29T07:03:48;101171.25;;;20.98;nan
38191;BME280;25191;47.510;19.124;2023-01-29T07:13:50;101167.38;;;21.04;nan
38191;BME280;25191;47.510;19.124;2023-01-29T07:23:53;101165.88;;;21.14;nan
38191;BME280;25191;47.510;19.124;2023-01-29T07:33:55;101151.13;;;21.24;nan
38191;BME280;25191;47.510;19.124;2023-01-29T07:43:56;101145.28;;;21.34;nan
38191;BME280;25191;47.510;19.124;2023-01-29T07:54:00;101143.59;;;21.46;nan
38191;BME280;25191;47.510;19.124;2023-01-29T08:04:00;101147.41;;;21.54;nan
38191;BME280;25191;47.510;19.124;2023-01-29T08:14:01;101145.25;;;21.61;nan
38191;BME280;25191;47.510;19.124;2023-01-29T08:24:02;101158.00;;;21.67;nan
38191;BME280;25191;47.510;19.124;2023-01-29T08:34:02;101161.25;;;21.58;nan
38191;BME280;25191;47.510;19.124;2023-01-29T08:44:03;101185.75;;;21.46;nan
38191;BME280;25191;47.510;19.124;2023-01-29T08:54:03;101194.09;;;21.52;nan
38191;BME280;25191;47.510;19.124;2023-01-29T09:04:04;101202.72;;;21.54;nan
38191;BME280;25191;47.510;19.124;2023-01-29T09:14:05;101205.28;;;21.56;nan
38191;BME280;25191;47.510;19.124;2023-01-29T09:24:05;101208.88;;;21.55;nan
38191;BME280;25191;47.510;19.124;2023-01-29T09:34:06;101217.06;;;21.50;nan
38191;BME280;25191;47.510;19.124;2023-01-29T09:44:21;101216.91;;;19.03;nan
38191;BME280;25191;47.510;19.124;2023-01-29T09:54:31;101221.28;;;20.40;nan
38191;BME280;25191;47.510;19.124;2023-01-29T10:05:18;101217.81;;;20.69;nan
38191;BME280;25191;47.510;19.124;2023-01-29T10:25:38;101206.50;;;20.95;nan
38191;BME280;25191;47.510;19.124;2023-01-29T10:35:46;101211.38;;;21.02;nan
38191;BME280;25191;47.510;19.124;2023-01-29T10:46:14;101206.69;;;21.07;nan
38191;BME280;25191;47.510;19.124;2023-01-29T11:06:38;101175.25;;;21.18;nan
38191;BME280;25191;47.510;19.124;2023-01-29T11:16:45;101181.25;;;21.20;nan
38191;BME280;25191;47.510;19.124;2023-01-29T11:26:48;101151.66;;;21.30;nan
38191;BME280;25191;47.510;19.124;2023-01-29T11:37:02;101145.81;;;21.39;nan
38191;BME280;25191;47.510;19.124;2023-01-29T11:47:20;101125.06;;;21.47;nan
38191;BME280;25191;47.510;19.124;2023-01-29T11:57:37;101105.22;;;21.54;nan
38191;BME280;25191;47.510;19.124;2023-01-29T12:07:46;101108.53;;;21.58;nan
38191;BME280;25191;47.510;19.124;2023-01-29T12:17:56;101103.19;;;21.59;nan
38191;BME280;25191;47.510;19.124;2023-01-29T12:38:34;101096.09;;;21.60;nan
38191;BME280;25191;47.510;19.124;2023-01-29T12:48:38;101090.84;;;21.60;nan
38191;BME280;25191;47.510;19.124;2023-01-29T12:58:45;101090.00;;;21.59;nan
38191;BME280;25191;47.510;19.124;2023-01-29T13:08:51;101073.34;;;21.59;nan
38191;BME280;25191;47.510;19.124;2023-01-29T13:19:00;101047.94;;;21.58;nan
38191;BME280;25191;47.510;19.124;2023-01-29T13:29:02;101027.47;;;21.62;nan
38191;BME280;25191;47.510;19.124;2023-01-29T13:39:16;101032.66;;;21.63;nan
38191;BME280;25191;47.510;19.124;2023-01-29T13:49:31;101040.66;;;21.62;nan
38191;BME280;25191;47.510;19.124;2023-01-29T13:59:53;101031.09;;;21.61;nan
38191;BME280;25191;47.510;19.124;2023-01-29T14:20:18;101052.31;;;21.32;nan
38191;BME280;25191;47.510;19.124;2023-01-29T14:30:21;101044.84;;;21.51;nan
38191;BME280;25191;47.510;19.124;2023-01-29T14:40:25;101050.47;;;21.59;nan
38191;BME280;25191;47.510;19.124;2023-01-29T15:00:36;101050.25;;;21.63;nan
38191;BME280;25191;47.510;19.124;2023-01-29T15:10:52;101050.16;;;21.64;nan
38191;BME280;25191;47.510;19.124;2023-01-29T15:21:13;101043.09;;;21.65;nan
38191;BME280;25191;47.510;19.124;2023-01-29T15:31:17;101038.88;;;21.62;nan
38191;BME280;25191;47.510;19.124;2023-01-29T15:41:18;101046.16;;;21.58;nan
38191;BME280;25191;47.510;19.124;2023-01-29T15:51:21;101050.56;;;21.58;nan
38191;BME280;25191;47.510;19.124;2023-01-29T16:01:27;101043.78;;;21.54;nan
38191;BME280;25191;47.510;19.124;2023-01-29T16:11:30;101059.91;;;21.49;nan
38191;BME280;25191;47.510;19.124;2023-01-29T16:21:36;101059.19;;;21.47;nan
38191;BME280;25191;47.510;19.124;2023-01-29T16:31:40;101072.03;;;21.39;nan
38191;BME280;25191;47.510;19.124;2023-01-29T16:41:42;101087.22;;;21.35;nan
38191;BME280;25191;47.510;19.124;2023-01-29T16:51:43;101097.09;;;21.32;nan
38191;BME280;25191;47.510;19.124;2023-01-29T17:01:44;101093.59;;;21.31;nan
38191;BME280;25191;47.510;19.124;2023-01-29T17:11:46;101087.69;;;21.27;nan
38191;BME280;25191;47.510;19.124;2023-01-29T17:21:49;101085.28;;;21.24;nan
38191;BME280;25191;47.510;19.124;2023-01-29T17:31:51;101078.44;;;21.22;nan
38191;BME280;25191;47.510;19.124;2023-01-29T17:41:55;101054.84;;;21.20;nan
38191;BME280;25191;47.510;19.124;2023-01-29T17:51:57;101051.34;;;21.20;nan
38191;BME280;25191;47.510;19.124;2023-01-29T18:02:08;101039.13;;;21.19;nan
38191;BME280;25191;47.510;19.124;2023-01-29T18:12:09;101038.81;;;21.23;nan
38191;BME280;25191;47.510;19.124;2023-01-29T18:22:11;101039.34;;;21.28;nan
38191;BME280;25191;47.510;19.124;2023-01-29T18:32:13;101017.13;;;21.33;nan
38191;BME280;25191;47.510;19.124;2023-01-29T18:42:14;101022.69;;;21.41;nan
38191;BME280;25191;47.510;19.124;2023-01-29T18:52:17;101018.50;;;21.51;nan
38191;BME280;25191;47.510;19.124;2023-01-29T19:02:17;101012.91;;;21.56;nan
38191;BME280;25191;47.510;19.124;2023-01-29T19:12:18;101026.28;;;21.53;nan
38191;BME280;25191;47.510;19.124;2023-01-29T19:22:19;101015.53;;;21.43;nan
38191;BME280;25191;47.510;19.124;2023-01-29T19:32:21;101027.75;;;21.31;nan
38191;BME280;25191;47.510;19.124;2023-01-29T19:42:25;101011.66;;;21.23;nan
38191;BME280;25191;47.510;19.124;2023-01-29T19:52:26;101010.50;;;21.14;nan
38191;BME280;25191;47.510;19.124;2023-01-29T20:02:33;101015.94;;;21.11;nan
38191;BME280;25191;47.510;19.124;2023-01-29T20:12:34;101008.25;;;21.08;nan
38191;BME280;25191;47.510;19.124;2023-01-29T20:22:35;100993.19;;;21.10;nan
38191;BME280;25191;47.510;19.124;2023-01-29T20:32:39;100978.75;;;21.03;nan
38191;BME280;25191;47.510;19.124;2023-01-29T20:42:40;100979.56;;;20.90;nan
38191;BME280;25191;47.510;19.124;2023-01-29T20:52:42;100983.78;;;20.93;nan
38191;BME280;25191;47.510;19.124;2023-01-29T21:02:43;100988.41;;;20.89;nan
38191;BME280;25191;47.510;19.124;2023-01-29T21:12:45;100992.97;;;20.87;nan
38191;BME280;25191;47.510;19.124;2023-01-29T21:22:47;101010.75;;;20.84;nan
38191;BME280;25191;47.510;19.124;2023-01-29T21:32:48;101013.66;;;20.79;nan
38191;BME280;25191;47.510;19.124;2023-01-29T21:42:49;101012.72;;;20.80;nan
38191;BME280;25191;47.510;19.124;2023-01-29T21:53:10;101004.09;;;20.78;nan
38191;BME280;25191;47.510;19.124;2023-01-29T22:03:10;100994.72;;;20.74;nan
38191;BME280;25191;47.510;19.124;2023-01-29T22:13:11;100982.66;;;20.70;nan
38191;BME280;25191;47.510;19.124;2023-01-29T22:23:11;100964.34;;;20.68;nan
38191;BME280;25191;47.510;19.124;2023-01-29T22:33:12;100954.00;;;20.65;nan
38191;BME280;25191;47.510;19.124;2023-01-29T22:43:12;100942.84;;;20.61;nan
38191;BME280;25191;47.510;19.124;2023-01-29T22:53:13;100928.09;;;20.59;nan
38191;BME280;25191;47.510;19.124;2023-01-29T23:03:13;100930.84;;;20.57;nan
38191;BME280;25191;47.510;19.124;2023-01-29T23:13:14;100925.03;;;20.52;nan
38191;BME280;25191;47.510;19.124;2023-01-29T23:23:14;100924.19;;;20.52;nan
38191;BME280;25191;47.510;19.124;2023-01-29T23:33:16;100899.03;;;20.47;nan
38191;BME280;25191;47.510;19.124;2023-01-29T23:43:18;100896.50;;;20.46;nan
38191;BME280;25191;47.510;19.124;2023-01-29T23:53:19;100888.69;;;20.44;nan
